Time;durP1;ratioP1;P1;durP2;ratioP2;P2;SDS_P1;SDS_P2;PMS_P1;PMS_P2;Temp;Humidity;BMP_temperature;BMP_pressure;BME280_temperature;BME280_humidity;BME280_pressure;Samples;Min_cycle;Max_cycle;Signal;HPM_P1;HPM_P2
2021/09/06 00:02:15;;;;;;;7.07;4.97;;;;;;;27.63;38.61;98497.16;5074521;28;20673;-69
2021/09/06 00:04:43;;;;;;;7.77;4.93;;;;;;;27.98;37.74;98508.38;5065483;28;20205;-67
2021/09/06 00:07:11;;;;;;;9.23;5.10;;;;;;;27.83;37.90;98494.09;5073253;28;20229;-67
2021/09/06 00:09:38;;;;;;;7.33;5.10;;;;;;;27.60;38.50;98503.22;5072874;28;20208;-67
2021/09/06 00:12:06;;;;;;;8.63;5.33;;;;;;;27.87;37.68;98500.63;5074200;28;20214;-68
2021/09/06 00:14:33;;;;;;;8.33;5.67;;;;;;;27.40;38.71;98495.31;5072879;28;20205;-67
2021/09/06 00:17:00;;;;;;;8.50;5.27;;;;;;;27.90;37.81;98498.09;5073622;28;20236;-68
2021/09/06 00:19:28;;;;;;;7.67;5.13;;;;;;;27.32;39.15;98485.81;5073233;28;20212;-68
2021/09/06 00:21:56;;;;;;;7.47;5.20;;;;;;;27.36;38.57;98491.56;5073743;28;20220;-68
2021/09/06 00:24:24;;;;;;;6.83;4.83;;;;;;;27.95;37.59;98489.78;5073403;28;20209;-69
2021/09/06 00:26:51;;;;;;;8.77;5.33;;;;;;;28.19;36.93;98495.09;5073896;28;20661;-67
2021/09/06 00:29:18;;;;;;;10.00;5.17;;;;;;;28.05;37.22;98497.84;5072514;28;20205;-68
2021/09/06 00:31:46;;;;;;;8.67;5.40;;;;;;;27.60;38.08;98490.34;5071523;28;20688;-69
2021/09/06 00:34:13;;;;;;;7.70;5.17;;;;;;;27.65;38.14;98495.75;5073332;28;20213;-68
2021/09/06 00:36:40;;;;;;;7.07;4.97;;;;;;;27.67;37.96;98498.97;5073361;28;20225;-68
2021/09/06 00:39:09;;;;;;;9.07;5.00;;;;;;;27.93;37.36;98499.44;5072653;28;20212;-69
2021/09/06 00:41:37;;;;;;;6.57;4.70;;;;;;;27.52;38.48;98490.19;5072862;28;20302;-68
2021/09/06 00:44:04;;;;;;;7.40;5.17;;;;;;;27.97;37.52;98492.22;5065246;28;20205;-68
2021/09/06 00:46:32;;;;;;;6.97;5.10;;;;;;;27.35;38.56;98489.91;5073478;28;20196;-68
2021/09/06 00:48:59;;;;;;;7.83;4.93;;;;;;;27.64;37.99;98494.13;5063849;28;20234;-68
2021/09/06 00:51:26;;;;;;;6.80;4.97;;;;;;;28.19;36.73;98492.38;5065472;28;20653;-68
2021/09/06 00:53:54;;;;;;;7.27;5.30;;;;;;;27.31;38.76;98491.63;5074211;28;20609;-67
2021/09/06 00:56:22;;;;;;;7.00;5.13;;;;;;;27.12;39.81;98486.09;5072416;28;20225;-68
2021/09/06 00:58:50;;;;;;;7.03;5.20;;;;;;;26.73;40.30;98484.72;5072741;28;20224;-67
2021/09/06 01:01:17;;;;;;;7.73;5.47;;;;;;;27.53;38.95;98489.09;5073238;28;20300;-67
2021/09/06 01:03:45;;;;;;;7.97;5.40;;;;;;;27.34;39.24;98491.00;5071496;28;20208;-67
2021/09/06 01:06:12;;;;;;;8.07;5.03;;;;;;;26.73;40.76;98485.53;5071728;28;20197;-67
2021/09/06 01:08:39;;;;;;;7.77;5.50;;;;;;;26.10;42.26;98491.44;5071721;28;20773;-67
2021/09/06 01:11:07;;;;;;;9.30;5.70;;;;;;;26.37;41.67;98488.94;5072332;28;20223;-69
2021/09/06 01:13:35;;;;;;;7.80;5.70;;;;;;;26.52;42.20;98481.38;5071802;28;20282;-67
2021/09/06 01:16:02;;;;;;;9.63;5.70;;;;;;;27.01;40.29;98486.53;5072421;28;20206;-67
2021/09/06 01:18:30;;;;;;;9.47;5.70;;;;;;;25.92;43.13;98492.97;5071636;28;20231;-67
2021/09/06 01:20:57;;;;;;;10.80;5.40;;;;;;;26.01;43.35;98485.78;5070859;28;20200;-70
2021/09/06 01:23:24;;;;;;;8.57;5.50;;;;;;;26.51;42.43;98489.88;5072177;28;20200;-68
2021/09/06 01:25:53;;;;;;;9.03;5.90;;;;;;;26.47;42.21;98492.41;5071783;28;20208;-68
2021/09/06 01:28:22;;;;;;;8.03;5.80;;;;;;;26.12;43.29;98495.50;5071418;28;20227;-68
2021/09/06 01:30:49;;;;;;;7.70;5.70;;;;;;;26.69;41.64;98497.34;5069800;28;20201;-69
2021/09/06 01:33:17;;;;;;;9.83;5.47;;;;;;;26.33;42.74;98496.09;5072233;28;22126;-68
2021/09/06 01:35:44;;;;;;;13.10;5.93;;;;;;;26.78;41.36;98499.16;5072190;28;20561;-68
2021/09/06 01:38:11;;;;;;;9.77;6.20;;;;;;;27.22;40.21;98504.34;5070737;28;20232;-68
2021/09/06 01:40:39;;;;;;;9.07;6.20;;;;;;;27.07;40.66;98504.53;5072944;28;20201;-67
2021/09/06 01:43:07;;;;;;;8.43;5.37;;;;;;;27.50;39.29;98511.59;5072772;28;20614;-67
2021/09/06 01:45:35;;;;;;;7.83;5.63;;;;;;;27.36;39.94;98510.75;5071529;28;20209;-67
2021/09/06 01:48:02;;;;;;;9.57;5.50;;;;;;;27.28;39.94;98511.41;5063021;28;20228;-69
2021/09/06 01:50:30;;;;;;;8.83;5.60;;;;;;;27.06;40.57;98506.44;5070989;28;20201;-69
2021/09/06 01:52:57;;;;;;;9.00;5.90;;;;;;;26.88;41.01;98503.69;5072232;28;20207;-70
2021/09/06 01:55:24;;;;;;;8.17;5.90;;;;;;;26.75;41.62;98501.69;5071281;28;20208;-69
2021/09/06 01:57:51;;;;;;;7.13;5.93;;;;;;;27.00;40.96;98504.09;5069928;28;20232;-69
2021/09/06 02:00:20;;;;;;;9.87;6.17;;;;;;;27.14;40.40;98505.81;5071285;28;20197;-69
2021/09/06 02:02:48;;;;;;;10.27;5.43;;;;;;;26.73;41.11;98507.44;5071475;28;20207;-68
2021/09/06 02:05:15;;;;;;;7.50;5.70;;;;;;;25.69;44.51;98501.06;5071054;28;20220;-69
2021/09/06 02:07:42;;;;;;;9.07;5.70;;;;;;;26.11;43.36;98504.00;5069690;28;20229;-70
2021/09/06 02:10:10;;;;;;;9.73;6.50;;;;;;;26.24;43.38;98504.13;5071554;28;20234;-68
2021/09/06 02:12:37;;;;;;;11.90;6.50;;;;;;;25.54;45.14;98498.44;5071370;28;20214;-69
2021/09/06 02:15:05;;;;;;;9.63;5.87;;;;;;;26.06;44.45;98510.34;5071105;28;20207;-69
2021/09/06 02:17:34;;;;;;;9.77;6.03;;;;;;;26.66;42.16;98517.13;5069158;28;20596;-69
2021/09/06 02:20:01;;;;;;;9.70;6.20;;;;;;;26.56;41.80;98519.97;5070399;28;20197;-69
2021/09/06 02:22:28;;;;;;;9.97;6.80;;;;;;;26.00;42.88;98513.41;5068620;28;20226;-70
2021/09/06 02:24:56;;;;;;;10.57;6.87;;;;;;;26.22;43.51;98508.25;5069889;28;20212;-69
2021/09/06 02:27:23;;;;;;;9.73;6.70;;;;;;;26.57;42.35;98513.38;5063013;28;20606;-69
2021/09/06 02:29:50;;;;;;;12.10;6.93;;;;;;;26.54;42.54;98514.75;5070449;28;20230;-69
2021/09/06 02:32:17;;;;;;;11.50;6.77;;;;;;;25.62;45.28;98512.31;5071078;28;20254;-69
2021/09/06 02:34:46;;;;;;;10.10;6.40;;;;;;;25.95;44.31;98507.97;5070289;28;20213;-69
2021/09/06 02:37:13;;;;;;;12.03;7.27;;;;;;;26.63;42.26;98517.69;5070044;28;20602;-69
2021/09/06 02:39:41;;;;;;;9.10;6.50;;;;;;;25.67;44.78;98511.47;5071107;28;20239;-69
2021/09/06 02:42:08;;;;;;;11.97;7.17;;;;;;;25.10;47.09;98520.31;5070820;28;20205;-69
2021/09/06 02:44:35;;;;;;;8.70;6.53;;;;;;;25.20;46.94;98517.50;5070195;28;20208;-71
2021/09/06 02:47:03;;;;;;;9.60;6.60;;;;;;;25.75;45.10;98516.31;5066730;28;20320;-69
2021/09/06 02:49:30;;;;;;;9.07;6.70;;;;;;;25.48;45.76;98518.72;5069183;28;20197;-68
2021/09/06 02:51:59;;;;;;;9.07;6.43;;;;;;;25.89;44.78;98518.09;5070191;28;20198;-69
2021/09/06 02:54:26;;;;;;;13.93;6.53;;;;;;;25.88;44.46;98521.94;5070161;28;20221;-69
2021/09/06 02:56:53;;;;;;;9.87;6.50;;;;;;;26.37;42.98;98511.66;5070043;28;20228;-69
2021/09/06 02:59:21;;;;;;;10.70;6.63;;;;;;;25.95;44.58;98518.94;5069775;28;20209;-68
2021/09/06 03:01:48;;;;;;;8.97;7.00;;;;;;;25.70;45.33;98511.69;5070063;28;20203;-69
2021/09/06 03:04:15;;;;;;;12.43;7.30;;;;;;;26.33;42.77;98528.94;5069880;28;20216;-69
2021/09/06 03:06:42;;;;;;;12.47;7.23;;;;;;;26.66;41.93;98517.91;5067154;28;20568;-68
2021/09/06 03:09:11;;;;;;;9.40;6.30;;;;;;;26.72;41.71;98515.94;5070524;28;20205;-69
2021/09/06 03:11:39;;;;;;;12.13;7.20;;;;;;;26.83;41.24;98512.81;5070496;28;20201;-69
2021/09/06 03:14:06;;;;;;;9.53;6.60;;;;;;;26.79;41.04;98516.41;5062474;28;20246;-68
2021/09/06 03:16:34;;;;;;;11.97;6.40;;;;;;;26.67;41.08;98518.75;5068921;28;20281;-69
2021/09/06 03:19:01;;;;;;;9.47;6.40;;;;;;;26.60;41.55;98516.34;5070055;28;20219;-68
2021/09/06 03:21:28;;;;;;;10.77;6.90;;;;;;;26.60;41.28;98519.09;5066828;28;20292;-68
2021/09/06 03:23:56;;;;;;;9.67;6.67;;;;;;;26.64;41.01;98514.66;5070198;28;20202;-68
2021/09/06 03:26:24;;;;;;;10.53;7.03;;;;;;;26.27;41.73;98519.97;5065579;28;20207;-68
2021/09/06 03:28:51;;;;;;;8.43;6.20;;;;;;;26.45;41.45;98519.22;5070485;28;20223;-69
2021/09/06 03:31:19;;;;;;;10.77;6.40;;;;;;;26.46;41.25;98512.63;5068789;28;20214;-68
2021/09/06 03:33:46;;;;;;;9.53;6.40;;;;;;;26.45;41.60;98512.94;5070773;28;20832;-68
2021/09/06 03:36:13;;;;;;;10.60;7.30;;;;;;;26.14;42.20;98509.69;5067174;28;20227;-68
2021/09/06 03:38:41;;;;;;;10.20;6.87;;;;;;;25.38;44.45;98505.94;5069998;28;20232;-68
2021/09/06 03:41:08;;;;;;;11.67;7.53;;;;;;;26.21;42.64;98503.91;5070614;28;20666;-69
2021/09/06 03:43:37;;;;;;;9.83;7.20;;;;;;;26.11;42.19;98510.28;5070891;28;20690;-68
2021/09/06 03:46:04;;;;;;;11.37;6.80;;;;;;;25.57;44.29;98506.06;5066852;28;20581;-70
2021/09/06 03:48:31;;;;;;;9.87;7.13;;;;;;;25.75;43.97;98508.13;5065514;28;20229;-68
2021/09/06 03:50:59;;;;;;;14.47;7.77;;;;;;;25.74;44.32;98517.44;5069887;28;20202;-69
2021/09/06 03:53:26;;;;;;;13.23;7.77;;;;;;;26.19;42.22;98514.31;5069388;28;20217;-68
2021/09/06 03:55:53;;;;;;;15.37;8.50;;;;;;;26.01;42.80;98510.41;5070932;28;20197;-68
2021/09/06 03:58:21;;;;;;;12.40;8.60;;;;;;;26.01;42.83;98510.41;5069712;28;20229;-68
2021/09/06 04:00:49;;;;;;;12.40;8.50;;;;;;;24.90;46.82;98525.03;5069852;28;20250;-68
2021/09/06 04:03:17;;;;;;;11.33;8.20;;;;;;;24.29;48.24;98513.47;5069998;28;20205;-68
2021/09/06 04:05:44;;;;;;;13.20;8.03;;;;;;;25.03;46.70;98516.25;5068602;28;20206;-68
2021/09/06 04:08:11;;;;;;;11.03;8.40;;;;;;;25.87;43.58;98520.31;5068195;28;20229;-69
2021/09/06 04:10:39;;;;;;;16.30;8.43;;;;;;;25.41;44.20;98527.25;5068833;28;20205;-68
2021/09/06 04:13:06;;;;;;;12.27;8.10;;;;;;;25.21;45.74;98516.41;5070320;28;20296;-68
2021/09/06 04:15:33;;;;;;;11.83;7.93;;;;;;;24.50;48.53;98514.22;5069245;28;20214;-70
2021/09/06 04:18:02;;;;;;;12.03;7.30;;;;;;;25.22;46.17;98519.94;5069012;28;20572;-68
2021/09/06 04:20:30;;;;;;;11.10;7.97;;;;;;;25.60;44.11;98525.47;5068742;28;20203;-69
2021/09/06 04:22:57;;;;;;;11.00;8.10;;;;;;;25.66;43.92;98523.50;5066544;28;20625;-68
2021/09/06 04:25:24;;;;;;;12.13;7.90;;;;;;;25.90;43.25;98524.41;5066762;28;20669;-68
2021/09/06 04:27:51;;;;;;;10.20;7.03;;;;;;;25.98;43.05;98529.28;5062498;28;20225;-68
2021/09/06 04:30:19;;;;;;;14.33;7.50;;;;;;;24.49;47.30;98538.00;5069258;28;20228;-68
2021/09/06 04:32:46;;;;;;;13.63;8.07;;;;;;;25.04;45.42;98537.78;5062285;28;20673;-68
2021/09/06 04:35:14;;;;;;;10.63;8.17;;;;;;;24.56;47.56;98532.22;5068321;28;20283;-68
2021/09/06 04:37:42;;;;;;;14.30;8.23;;;;;;;24.76;47.29;98537.66;5070234;28;20232;-68
2021/09/06 04:40:10;;;;;;;11.50;7.87;;;;;;;25.52;44.41;98538.91;5063888;28;20206;-68
2021/09/06 04:42:38;;;;;;;11.97;7.90;;;;;;;25.67;44.08;98547.00;5071190;28;20215;-68
2021/09/06 04:45:07;;;;;;;14.07;8.87;;;;;;;24.81;46.94;98554.00;5070556;28;20222;-68
2021/09/06 04:47:34;;;;;;;16.13;8.33;;;;;;;23.96;50.15;98544.06;5072296;28;20308;-69
2021/09/06 04:50:01;;;;;;;12.50;8.60;;;;;;;24.36;48.54;98552.19;5065354;28;20212;-68
2021/09/06 04:52:30;;;;;;;11.77;8.13;;;;;;;24.71;47.37;98545.84;5073820;28;20203;-69
2021/09/06 04:54:57;;;;;;;13.03;8.43;;;;;;;24.37;48.79;98551.09;5071434;28;20213;-68
2021/09/06 04:57:25;;;;;;;12.60;8.33;;;;;;;24.48;48.82;98555.44;5073317;28;20243;-69
2021/09/06 04:59:52;;;;;;;13.07;8.27;;;;;;;25.00;47.34;98558.59;5072565;28;20279;-68
2021/09/06 05:02:20;;;;;;;12.17;8.73;;;;;;;25.07;46.72;98567.28;5066068;28;20555;-68
2021/09/06 05:04:47;;;;;;;16.50;9.07;;;;;;;25.17;46.28;98561.78;5070007;28;20208;-69
2021/09/06 05:07:14;;;;;;;12.83;8.47;;;;;;;25.88;43.75;98567.63;5072593;28;20259;-68
2021/09/06 05:09:43;;;;;;;13.97;7.80;;;;;;;26.07;43.16;98566.69;5072794;28;20201;-68
2021/09/06 05:12:10;;;;;;;12.87;8.77;;;;;;;26.21;42.67;98575.88;5071530;28;20206;-69
2021/09/06 05:14:38;;;;;;;14.33;8.40;;;;;;;25.73;43.67;98584.97;5072418;28;20208;-69
2021/09/06 05:17:05;;;;;;;13.17;8.67;;;;;;;26.17;42.99;98582.19;5072669;28;20316;-69
2021/09/06 05:19:32;;;;;;;15.43;9.07;;;;;;;26.03;43.51;98584.78;5073079;28;20209;-69
2021/09/06 05:22:00;;;;;;;15.43;9.13;;;;;;;26.21;42.97;98583.25;5069941;28;20197;-69
2021/09/06 05:24:27;;;;;;;16.20;8.30;;;;;;;26.32;42.70;98584.78;5080935;28;20201;-68
2021/09/06 05:26:56;;;;;;;12.63;8.30;;;;;;;26.50;42.20;98584.09;5072855;28;20205;-67
2021/09/06 05:29:23;;;;;;;14.90;9.30;;;;;;;26.47;42.28;98584.66;5064386;28;20853;-67
2021/09/06 05:31:50;;;;;;;14.77;9.37;;;;;;;26.63;42.04;98586.97;5068896;28;20206;-68
2021/09/06 05:34:18;;;;;;;16.07;8.77;;;;;;;26.62;42.03;98590.00;5072591;28;20674;-67
2021/09/06 05:36:45;;;;;;;15.07;8.90;;;;;;;26.67;41.66;98599.00;5071821;28;20655;-67
2021/09/06 05:39:12;;;;;;;14.07;8.70;;;;;;;26.52;42.36;98598.28;5075505;28;20587;-68
2021/09/06 05:41:39;;;;;;;12.70;8.73;;;;;;;26.46;42.49;98599.44;5071966;28;20586;-68
2021/09/06 05:44:08;;;;;;;13.57;9.33;;;;;;;26.16;43.60;98596.97;5072672;28;20651;-69
2021/09/06 05:46:36;;;;;;;13.47;8.97;;;;;;;26.94;41.88;98599.22;5071601;28;20213;-71
2021/09/06 05:49:04;;;;;;;15.57;9.07;;;;;;;27.21;41.29;98595.94;5070770;28;20683;-72
2021/09/06 05:51:31;;;;;;;14.07;9.43;;;;;;;27.25;41.03;98600.53;5069869;28;20684;-69
2021/09/06 05:53:58;;;;;;;11.03;8.37;;;;;;;27.44;40.69;98601.38;5071911;28;20650;-68
2021/09/06 05:56:26;;;;;;;12.67;8.77;;;;;;;27.48;40.63;98593.38;5075943;28;20204;-68
2021/09/06 05:58:53;;;;;;;18.33;9.10;;;;;;;27.56;40.28;98596.25;5069487;28;20228;-69
2021/09/06 06:01:24;;;;;;;15.23;8.33;;;;;;;27.79;40.47;98600.91;5069207;28;20200;-68
2021/09/06 06:03:52;;;;;;;17.33;8.47;;;;;;;27.96;39.54;98612.16;5077270;28;20548;-69
2021/09/06 06:06:19;;;;;;;12.07;8.10;;;;;;;28.03;39.95;98611.78;5070816;28;20343;-69
2021/09/06 06:08:46;;;;;;;12.00;8.13;;;;;;;28.18;39.38;98608.78;5070386;28;20233;-70
2021/09/06 06:11:13;;;;;;;12.63;8.70;;;;;;;28.26;39.24;98616.31;5071680;28;20209;-71
2021/09/06 06:13:41;;;;;;;12.80;8.17;;;;;;;28.43;38.96;98611.13;5071679;28;20199;-69
2021/09/06 06:16:08;;;;;;;11.10;7.80;;;;;;;28.44;38.73;98615.50;5071192;28;20209;-70
2021/09/06 06:18:37;;;;;;;13.30;7.73;;;;;;;28.50;38.49;98617.88;5073087;28;20231;-68
2021/09/06 06:21:04;;;;;;;12.53;7.90;;;;;;;28.46;38.08;98616.84;5070985;28;20938;-68
2021/09/06 06:23:31;;;;;;;11.83;8.50;;;;;;;26.65;41.98;98614.88;5070908;28;20232;-68
2021/09/06 06:25:59;;;;;;;12.60;8.23;;;;;;;26.67;41.43;98622.81;5071022;28;20212;-67
2021/09/06 06:28:26;;;;;;;10.47;7.67;;;;;;;28.33;37.97;98625.00;5071714;28;20794;-67
2021/09/06 06:30:53;;;;;;;13.70;8.00;;;;;;;28.79;37.26;98626.66;5070705;28;20929;-67
2021/09/06 06:33:20;;;;;;;16.80;8.13;;;;;;;29.11;36.48;98631.28;5063302;28;20692;-67
2021/09/06 06:35:49;;;;;;;11.97;7.37;;;;;;;29.22;36.10;98638.22;5070637;28;20208;-67
2021/09/06 06:38:21;;;;;;;10.90;8.20;;;;;;;29.19;35.34;98638.84;5070635;28;20247;-67
2021/09/06 06:40:49;;;;;;;11.33;7.60;;;;;;;29.44;35.07;98641.88;5070956;28;20210;-68
2021/09/06 06:43:23;;;;;;;12.53;7.23;;;;;;;29.58;35.20;98650.13;5068938;28;20205;-68
2021/09/06 06:45:51;;;;;;;13.03;8.27;;;;;;;29.72;34.96;98648.19;5065488;28;20241;-68
2021/09/06 06:48:19;;;;;;;12.83;7.67;;;;;;;30.07;34.69;98652.88;5068353;28;20258;-68
2021/09/06 06:50:54;;;;;;;11.13;7.87;;;;;;;30.08;34.19;98655.34;5068274;28;20209;-68
2021/09/06 06:53:22;;;;;;;15.00;7.33;;;;;;;30.16;33.95;98651.84;5070720;28;20233;-67
2021/09/06 06:55:53;;;;;;;11.50;7.63;;;;;;;30.52;33.63;98654.56;5064329;28;20702;-68
2021/09/06 06:58:21;;;;;;;10.57;7.07;;;;;;;30.63;33.30;98659.50;5060329;28;20263;-68
2021/09/06 07:00:51;;;;;;;10.43;7.43;;;;;;;30.81;32.71;98649.44;5061814;28;20211;-73
2021/09/06 07:03:19;;;;;;;21.53;7.57;;;;;;;31.00;32.56;98656.31;5061362;28;20205;-69
2021/09/06 07:05:47;;;;;;;9.73;7.07;;;;;;;31.09;32.42;98651.66;5062315;28;20295;-68
2021/09/06 07:08:16;;;;;;;13.83;7.43;;;;;;;31.28;32.33;98663.31;5064983;28;20239;-69
2021/09/06 07:10:44;;;;;;;12.17;7.60;;;;;;;28.33;37.00;98647.78;5060875;28;20675;-69
2021/09/06 07:13:13;;;;;;;10.27;7.30;;;;;;;30.18;33.96;98651.53;5065218;28;20204;-68
2021/09/06 07:15:41;;;;;;;14.23;7.90;;;;;;;28.15;36.96;98654.13;5060697;28;20920;-69
2021/09/06 07:18:11;;;;;;;15.90;8.10;;;;;;;29.04;36.56;98647.41;5068228;28;20231;-69
2021/09/06 07:20:39;;;;;;;14.10;9.03;;;;;;;29.95;34.17;98655.38;5065868;28;20279;-69
2021/09/06 07:23:14;;;;;;;16.57;8.00;;;;;;;30.20;33.62;98657.56;5065193;28;21890;-69
2021/09/06 07:25:50;;;;;;;15.50;7.73;;;;;;;30.04;34.76;98650.72;5069246;28;20247;-68
2021/09/06 07:28:17;;;;;;;12.40;7.40;;;;;;;30.40;33.49;98662.59;5067972;28;20268;-69
2021/09/06 07:30:44;;;;;;;14.83;8.20;;;;;;;31.45;32.02;98659.75;5064531;28;20224;-68
2021/09/06 07:33:12;;;;;;;15.80;7.63;;;;;;;31.69;31.15;98658.22;5061171;28;20300;-68
2021/09/06 07:35:39;;;;;;;13.63;7.50;;;;;;;31.03;32.00;98657.63;5061660;28;20665;-71
2021/09/06 07:38:06;;;;;;;16.77;7.73;;;;;;;31.91;30.78;98669.16;5066581;28;20229;-68
2021/09/06 07:40:36;;;;;;;16.23;7.50;;;;;;;32.24;30.18;98672.28;5066867;28;20227;-68
2021/09/06 07:43:06;;;;;;;16.47;7.70;;;;;;;31.78;30.64;98667.34;5060785;28;20677;-67
2021/09/06 07:45:43;;;;;;;11.40;7.37;;;;;;;29.12;34.77;98671.41;5062560;28;20724;-67
2021/09/06 07:48:13;;;;;;;16.30;7.53;;;;;;;31.52;31.75;98671.16;5068651;28;20221;-69
2021/09/06 07:50:41;;;;;;;12.07;6.83;;;;;;;31.85;30.89;98675.97;5066866;28;20251;-70
2021/09/06 07:53:09;;;;;;;12.00;7.67;;;;;;;32.00;30.68;98670.00;5068331;28;20292;-68
2021/09/06 07:55:37;;;;;;;12.50;7.30;;;;;;;32.87;29.77;98681.53;5069374;28;20209;-68
2021/09/06 07:58:08;;;;;;;9.93;7.07;;;;;;;30.18;33.37;98676.31;5067388;28;20229;-70
2021/09/06 08:00:35;;;;;;;11.10;6.67;;;;;;;31.89;30.47;98687.19;5070882;28;20212;-67
2021/09/06 08:03:03;;;;;;;13.80;6.57;;;;;;;30.93;32.00;98682.72;5066490;28;20573;-67
2021/09/06 08:05:32;;;;;;;13.80;7.30;;;;;;;31.06;32.01;98684.59;5067475;28;20657;-68
2021/09/06 08:08:00;;;;;;;13.93;7.30;;;;;;;30.60;33.61;98679.41;5068725;28;20238;-69
2021/09/06 08:10:27;;;;;;;10.67;6.53;;;;;;;31.11;32.12;98688.00;5070387;28;20209;-70
2021/09/06 08:12:56;;;;;;;10.57;6.63;;;;;;;30.31;33.42;98692.78;5067186;28;20690;-68
2021/09/06 08:15:28;;;;;;;8.87;6.00;;;;;;;33.07;29.28;98705.72;5066966;28;20303;-70
2021/09/06 08:17:55;;;;;;;10.87;6.60;;;;;;;34.17;27.65;98709.13;5064083;28;20715;-66
2021/09/06 08:20:24;;;;;;;11.97;6.67;;;;;;;32.69;29.51;98707.53;5064027;28;20642;-69
2021/09/06 08:22:52;;;;;;;10.37;6.23;;;;;;;33.65;28.01;98716.09;5066140;28;20224;-70
2021/09/06 08:25:22;;;;;;;8.73;6.10;;;;;;;34.43;27.21;98716.13;5071799;28;20240;-68
2021/09/06 08:27:52;;;;;;;11.20;6.10;;;;;;;28.70;35.69;98702.69;5066582;28;20720;-69
2021/09/06 08:30:20;;;;;;;10.87;5.57;;;;;;;29.10;35.82;98701.16;5070173;28;20206;-68
2021/09/06 08:32:52;;;;;;;12.10;5.80;;;;;;;28.70;37.04;98705.41;5070849;28;20289;-69
2021/09/06 08:35:20;;;;;;;10.73;5.93;;;;;;;29.03;36.31;98709.78;5072694;28;20606;-69
2021/09/06 08:37:52;;;;;;;8.40;6.00;;;;;;;27.77;39.00;98709.28;5073325;28;20227;-68
2021/09/06 08:40:22;;;;;;;8.13;5.67;;;;;;;28.24;37.40;98712.72;5069775;28;20233;-67
2021/09/06 08:42:50;;;;;;;10.40;5.93;;;;;;;28.69;36.50;98716.72;5069413;28;20728;-69
2021/09/06 08:45:18;;;;;;;11.37;5.67;;;;;;;29.21;35.60;98719.09;5066966;28;20575;-69
2021/09/06 08:47:50;;;;;;;8.70;5.60;;;;;;;29.71;35.58;98710.69;5062690;28;20314;-68
2021/09/06 08:50:18;;;;;;;10.03;5.80;;;;;;;28.71;36.82;98709.78;5071948;28;20247;-69
2021/09/06 08:52:48;;;;;;;11.20;5.73;;;;;;;29.02;35.41;98710.91;5073909;28;20660;-68
2021/09/06 08:55:18;;;;;;;9.93;5.60;;;;;;;30.33;34.29;98720.03;5071679;28;20620;-68
2021/09/06 08:57:46;;;;;;;9.03;5.60;;;;;;;29.48;34.10;98721.84;5064342;28;20229;-72
2021/09/06 09:00:23;;;;;;;11.97;6.00;;;;;;;29.09;35.89;98711.31;5063028;28;20220;-69
2021/09/06 09:02:52;;;;;;;12.43;5.83;;;;;;;28.23;38.07;98716.56;5063669;28;20223;-68
2021/09/06 09:05:20;;;;;;;6.97;5.33;;;;;;;28.74;35.98;98717.41;5069999;28;20209;-68
2021/09/06 09:07:58;;;;;;;13.67;5.63;;;;;;;28.45;36.43;98725.06;5068518;28;20262;-67
2021/09/06 09:10:28;;;;;;;7.33;5.43;;;;;;;28.11;37.23;98718.97;5070666;28;20249;-68
2021/09/06 09:13:05;;;;;;;8.40;5.63;;;;;;;29.03;36.80;98706.25;5069947;28;22451;-68
2021/09/06 09:15:34;;;;;;;8.90;4.97;;;;;;;29.15;36.34;98712.06;5067939;28;20204;-68
2021/09/06 09:18:03;;;;;;;7.90;4.83;;;;;;;28.88;37.06;98717.47;5071456;28;20221;-69
2021/09/06 09:20:39;;;;;;;9.40;5.30;;;;;;;29.33;35.87;98719.38;5072260;28;20232;-68
2021/09/06 09:23:10;;;;;;;8.00;5.10;;;;;;;29.21;35.88;98713.59;5071110;28;20226;-70
2021/09/06 09:25:38;;;;;;;9.07;5.30;;;;;;;29.70;34.48;98722.00;5070769;28;20587;-68
2021/09/06 09:28:05;;;;;;;8.60;5.63;;;;;;;30.68;33.08;98722.78;5069901;28;20236;-69
2021/09/06 09:30:35;;;;;;;14.33;6.33;;;;;;;29.88;33.52;98727.38;5070471;28;20215;-70
2021/09/06 09:33:09;;;;;;;8.90;5.07;;;;;;;29.92;31.94;98728.38;5072643;28;20216;-67
2021/09/06 09:35:37;;;;;;;8.70;5.30;;;;;;;30.48;32.15;98737.03;5066987;28;20296;-68
2021/09/06 09:38:06;;;;;;;8.82;5.00;;;;;;;31.24;31.02;98723.00;5069334;28;20225;-68
2021/09/06 09:40:34;;;;;;;6.85;4.97;;;;;;;31.73;30.33;98722.72;5062528;28;20221;-68
2021/09/06 09:43:02;;;;;;;11.43;5.65;;;;;;;29.45;34.00;98726.03;5068257;28;20693;-68
2021/09/06 09:45:30;;;;;;;6.38;5.00;;;;;;;30.11;32.89;98726.31;5057941;28;20598;-68
2021/09/06 09:47:59;;;;;;;7.28;4.90;;;;;;;30.41;32.19;98725.63;5056228;28;20229;-69
2021/09/06 09:50:30;;;;;;;8.85;4.97;;;;;;;30.96;31.05;98724.25;5062340;28;20205;-70
2021/09/06 09:52:57;;;;;;;10.15;4.85;;;;;;;29.48;32.48;98724.59;5059537;28;20653;-70
2021/09/06 09:55:26;;;;;;;12.23;5.30;;;;;;;31.00;30.81;98722.50;5061507;28;20201;-69
2021/09/06 09:57:53;;;;;;;6.75;5.10;;;;;;;30.63;30.95;98728.41;5062669;28;20569;-69
2021/09/06 10:00:21;;;;;;;6.78;4.82;;;;;;;29.67;31.82;98730.84;5058749;28;20229;-69
2021/09/06 10:02:53;;;;;;;8.05;4.93;;;;;;;30.36;30.83;98730.44;5064999;28;20213;-69
2021/09/06 10:05:27;;;;;;;11.30;5.63;;;;;;;30.01;31.37;98728.47;5066262;28;20201;-70
2021/09/06 10:07:54;;;;;;;8.70;5.20;;;;;;;30.23;30.50;98732.13;5067982;28;20233;-71
2021/09/06 10:10:24;;;;;;;8.13;5.03;;;;;;;30.95;30.63;98722.63;5066177;28;20201;-71
2021/09/06 10:13:04;;;;;;;7.90;5.05;;;;;;;30.02;30.33;98730.91;5068611;28;20209;-70
2021/09/06 10:15:32;;;;;;;10.88;4.85;;;;;;;29.38;31.24;98725.63;5067667;28;20570;-71
2021/09/06 10:18:02;;;;;;;6.18;4.60;;;;;;;30.43;29.43;98722.56;5067622;28;20221;-73
2021/09/06 10:20:31;;;;;;;7.00;5.28;;;;;;;28.26;30.59;98728.88;5067422;28;20247;-71
2021/09/06 10:23:06;;;;;;;6.32;4.68;;;;;;;29.68;29.05;98713.22;5068869;28;20212;-70
2021/09/06 10:25:35;;;;;;;14.43;5.13;;;;;;;28.65;30.68;98715.66;5070039;28;20197;-72
2021/09/06 10:28:06;;;;;;;12.93;5.75;;;;;;;28.57;31.91;98708.94;5069739;28;20228;-75
2021/09/06 10:30:35;;;;;;;6.38;4.70;;;;;;;28.85;31.89;98705.16;5067955;28;20209;-76
2021/09/06 10:33:03;;;;;;;7.38;5.25;;;;;;;30.08;31.53;98698.56;5083325;28;20240;-71
2021/09/06 10:35:33;;;;;;;6.25;5.05;;;;;;;31.04;29.26;98706.97;5076522;28;20205;-72
2021/09/06 10:38:03;;;;;;;7.13;5.50;;;;;;;29.27;31.43;98712.38;5073622;28;20227;-75
2021/09/06 10:40:33;;;;;;;5.65;4.75;;;;;;;30.34;30.86;98697.69;5070621;28;20291;-75
2021/09/06 10:43:11;;;;;;;6.88;5.18;;;;;;;31.26;31.01;98697.88;5069956;28;20205;-69
2021/09/06 10:45:39;;;;;;;7.03;5.45;;;;;;;29.62;31.65;98695.19;5067527;28;20209;-71
2021/09/06 10:48:07;;;;;;;7.20;5.25;;;;;;;29.49;31.48;98699.53;5068665;28;20709;-71
2021/09/06 10:50:38;;;;;;;7.05;5.03;;;;;;;30.12;30.29;98697.69;5064966;28;20197;-71
2021/09/06 10:53:05;;;;;;;5.53;4.45;;;;;;;29.28;31.18;98692.00;5075956;28;20213;-72
2021/09/06 10:55:33;;;;;;;9.57;5.32;;;;;;;29.56;31.19;98688.16;5069085;28;20205;-71
2021/09/06 10:58:00;;;;;;;6.85;4.63;;;;;;;29.37;30.57;98695.66;5069012;28;20226;-71
2021/09/06 11:00:28;;;;;;;6.45;5.10;;;;;;;29.89;30.64;98693.19;5068576;28;20233;-71
2021/09/06 11:02:55;;;;;;;8.55;5.03;;;;;;;30.06;29.84;98693.34;5067670;28;20296;-70
2021/09/06 11:05:24;;;;;;;7.32;5.18;;;;;;;30.89;28.87;98687.22;5060520;28;20212;-71
2021/09/06 11:08:03;;;;;;;7.95;4.63;;;;;;;30.78;29.76;98683.94;5064598;28;20237;-70
2021/09/06 11:10:30;;;;;;;6.88;4.93;;;;;;;30.69;29.78;98682.25;5067434;28;20234;-70
2021/09/06 11:13:00;;;;;;;6.93;4.85;;;;;;;29.53;29.69;98702.47;5069547;28;20213;-72
2021/09/06 11:15:29;;;;;;;8.10;5.18;;;;;;;30.58;28.58;98691.88;5071841;28;20205;-70
2021/09/06 11:17:58;;;;;;;8.77;5.05;;;;;;;29.44;30.88;98688.63;5069551;28;20225;-70
2021/09/06 11:20:26;;;;;;;6.60;4.93;;;;;;;30.04;29.95;98695.63;5071128;28;20225;-70
2021/09/06 11:22:58;;;;;;;7.50;5.10;;;;;;;30.58;29.04;98694.63;5067901;28;20201;-70
2021/09/06 11:25:27;;;;;;;8.63;4.85;;;;;;;31.56;27.78;98692.28;5076573;28;20264;-70
2021/09/06 11:28:03;;;;;;;6.25;4.60;;;;;;;30.96;27.94;98702.19;5072528;28;20581;-69
2021/09/06 11:30:40;;;;;;;8.48;5.22;;;;;;;30.18;28.45;98701.94;5074161;28;20204;-69
2021/09/06 11:35:56;;;;;;;6.70;4.78;;;;;;;30.28;28.06;98704.47;5061994;28;20221;-70
2021/09/06 11:38:27;;;;;;;5.53;4.82;;;;;;;30.19;27.91;98702.72;5075648;28;20225;-70